Time;durP1;ratioP1;P1;durP2;ratioP2;P2;SDS_P1;SDS_P2;PMS_P1;PMS_P2;Temp;Humidity;BMP_temperature;BMP_pressure;BME280_temperature;BME280_humidity;BME280_pressure;Samples;Min_cycle;Max_cycle;Signal;HPM_P1;HPM_P2
2023/06/24 00:00:52;;;;;;;0.70;0.68;;;;;;;20.52;64.26;97368.78;10154588;29;20040;-51
2023/06/24 00:06:18;;;;;;;0.60;0.60;;;;;;;20.51;64.12;97372.63;10141936;29;20052;-51
2023/06/24 00:11:37;;;;;;;0.93;0.80;;;;;;;20.50;64.18;97363.72;10154190;29;20040;-51
2023/06/24 00:16:57;;;;;;;0.90;0.75;;;;;;;20.52;64.24;97374.19;10141612;29;20056;-51
2023/06/24 00:22:17;;;;;;;0.60;0.60;;;;;;;20.52;64.18;97382.31;10153803;29;20045;-51
2023/06/24 00:27:36;;;;;;;0.63;0.63;;;;;;;20.50;64.28;97382.66;10126913;29;20075;-51
2023/06/24 00:32:55;;;;;;;0.68;0.68;;;;;;;20.50;64.20;97384.53;10153487;29;20101;-51
2023/06/24 00:38:14;;;;;;;0.68;0.68;;;;;;;20.50;64.19;97407.00;10138943;29;20048;-51
2023/06/24 00:43:34;;;;;;;0.90;0.80;;;;;;;20.50;64.20;97408.91;10147699;29;20505;-51
2023/06/24 00:48:56;;;;;;;0.73;0.65;;;;;;;20.50;64.17;97423.25;10136752;29;20053;-51
2023/06/24 00:54:16;;;;;;;0.70;0.70;;;;;;;20.50;64.08;97427.84;10152478;29;20123;-50
2023/06/24 00:59:37;;;;;;;0.77;0.70;;;;;;;20.49;64.19;97427.06;10152307;29;20103;-48
2023/06/24 01:04:56;;;;;;;0.80;0.80;;;;;;;20.49;64.21;97423.56;10099257;29;20049;-51
2023/06/24 01:10:16;;;;;;;0.63;0.63;;;;;;;20.48;63.98;97420.06;10113312;29;20044;-51
2023/06/24 01:15:35;;;;;;;0.70;0.70;;;;;;;20.48;64.00;97422.78;10113163;29;20414;-51
2023/06/24 01:21:01;;;;;;;1.23;0.65;;;;;;;20.49;64.08;97423.56;10146862;29;20547;-51
2023/06/24 01:26:43;;;;;;;0.85;0.85;;;;;;;20.48;64.16;97416.53;10151525;29;20048;-52
2023/06/24 01:32:18;;;;;;;0.80;0.70;;;;;;;20.48;64.01;97405.72;10151344;29;20489;-51
2023/06/24 01:37:42;;;;;;;0.80;0.80;;;;;;;20.47;64.00;97404.94;10151140;29;20056;-51
2023/06/24 01:43:03;;;;;;;0.98;0.80;;;;;;;20.48;64.05;97400.31;10150951;29;20059;-50
2023/06/24 01:48:25;;;;;;;0.90;0.77;;;;;;;20.46;63.96;97399.81;10126719;29;20398;-51
2023/06/24 01:53:54;;;;;;;0.70;0.70;;;;;;;20.46;63.94;97402.53;10150286;29;20048;-51
2023/06/24 01:59:14;;;;;;;0.70;0.70;;;;;;;20.46;63.99;97405.25;10136078;29;20045;-51
2023/06/24 02:04:34;;;;;;;0.90;0.90;;;;;;;20.45;64.06;97415.28;10135772;29;20048;-51
2023/06/24 02:09:54;;;;;;;1.05;0.85;;;;;;;20.45;63.98;97409.06;10149939;29;20041;-51
2023/06/24 02:15:15;;;;;;;0.70;0.70;;;;;;;20.45;63.90;97428.00;10148259;29;20477;-51
2023/06/24 02:20:36;;;;;;;1.08;1.00;;;;;;;20.45;63.94;97428.00;10096564;29;20049;-51
2023/06/24 02:25:57;;;;;;;0.73;0.73;;;;;;;20.44;63.86;97427.19;10096327;29;20097;-51
2023/06/24 02:31:17;;;;;;;0.88;0.88;;;;;;;20.45;63.80;97441.53;10097946;29;20057;-52
2023/06/24 02:36:37;;;;;;;2.00;0.90;;;;;;;20.45;63.82;97460.50;10110099;29;20498;-50
2023/06/24 02:41:57;;;;;;;1.00;0.90;;;;;;;20.43;63.93;97468.91;10109955;29;20482;-50
2023/06/24 02:47:19;;;;;;;0.93;0.93;;;;;;;20.43;63.80;97474.34;10095597;29;20045;-51
2023/06/24 02:52:38;;;;;;;0.93;0.88;;;;;;;20.44;63.75;97477.81;10099839;29;20060;-52
2023/06/24 02:58:02;;;;;;;1.13;0.93;;;;;;;20.42;63.76;97488.97;10134006;29;20056;-49
2023/06/24 03:03:49;;;;;;;1.05;0.90;;;;;;;20.42;63.74;97490.88;10106388;29;20056;-52
2023/06/24 03:09:08;;;;;;;1.10;1.00;;;;;;;20.42;63.75;97494.38;10120401;29;20048;-51
2023/06/24 03:14:29;;;;;;;1.10;1.00;;;;;;;20.43;63.76;97511.44;10109133;29;20053;-52
2023/06/24 03:19:49;;;;;;;1.00;0.98;;;;;;;20.43;63.81;97522.25;10108050;29;20041;-51
2023/06/24 03:25:08;;;;;;;0.98;0.98;;;;;;;20.42;63.78;97515.22;10108802;29;20421;-52
2023/06/24 03:30:28;;;;;;;1.20;1.10;;;;;;;20.42;63.66;97515.22;10108746;29;20048;-52
2023/06/24 03:35:49;;;;;;;1.00;1.00;;;;;;;20.42;63.61;97518.72;10108739;29;20065;-50
2023/06/24 03:41:13;;;;;;;0.80;0.80;;;;;;;20.41;63.49;97519.84;10107554;29;20413;-50
2023/06/24 03:46:33;;;;;;;1.10;1.10;;;;;;;20.41;63.69;97516.34;10108403;29;20045;-51
2023/06/24 03:51:53;;;;;;;0.90;0.90;;;;;;;20.42;63.59;97509.81;10103790;29;20421;-50
2023/06/24 03:57:13;;;;;;;1.10;1.00;;;;;;;20.40;63.53;97512.81;10132783;29;20096;-51
2023/06/24 04:02:33;;;;;;;0.90;0.90;;;;;;;20.41;63.79;97516.34;10120428;29;20059;-51
2023/06/24 04:07:54;;;;;;;1.27;1.17;;;;;;;20.41;63.64;97510.94;10132741;29;20045;-51
2023/06/24 04:13:14;;;;;;;1.30;1.20;;;;;;;20.39;63.67;97516.66;10146794;29;20052;-51
2023/06/24 04:18:33;;;;;;;1.10;1.10;;;;;;;20.40;63.60;97529.06;10134674;29;20561;-49
2023/06/24 04:23:53;;;;;;;1.30;1.20;;;;;;;20.39;63.72;97518.56;10139627;29;20045;-50
2023/06/24 04:29:13;;;;;;;1.00;1.00;;;;;;;20.39;63.54;97507.75;10141265;29;20056;-51
2023/06/24 04:34:33;;;;;;;1.05;0.93;;;;;;;20.39;63.64;97510.47;10139813;29;20108;-49
2023/06/24 04:39:52;;;;;;;1.40;1.30;;;;;;;20.37;63.53;97513.47;10153262;29;20053;-51
2023/06/24 04:45:12;;;;;;;1.20;1.10;;;;;;;20.38;63.55;97519.69;10152885;29;20512;-51
2023/06/24 04:50:31;;;;;;;0.98;0.98;;;;;;;20.38;63.46;97531.28;10147311;29;20565;-51
2023/06/24 04:55:51;;;;;;;1.30;1.20;;;;;;;20.36;63.48;97533.50;10152832;29;20040;-52
2023/06/24 05:01:10;;;;;;;1.13;1.10;;;;;;;20.37;63.58;97534.31;10152453;29;20394;-51
2023/06/24 05:06:30;;;;;;;1.30;1.20;;;;;;;20.38;63.66;97547.53;10152340;29;20097;-50
2023/06/24 05:11:49;;;;;;;1.38;1.27;;;;;;;20.37;63.47;97558.69;10152293;29;20045;-51
2023/06/24 05:17:09;;;;;;;1.50;1.40;;;;;;;20.38;63.48;97573.78;10139592;29;20072;-52
2023/06/24 05:22:28;;;;;;;1.58;1.48;;;;;;;20.36;63.55;97571.41;10151791;29;20385;-51
2023/06/24 05:27:48;;;;;;;1.50;1.40;;;;;;;20.37;63.50;97577.63;10151540;29;20045;-50
2023/06/24 05:33:07;;;;;;;1.60;1.50;;;;;;;20.34;63.45;97577.09;10150747;29;20041;-51
2023/06/24 05:38:26;;;;;;;1.38;1.27;;;;;;;20.35;63.57;97592.25;10151212;29;20413;-51
2023/06/24 05:43:46;;;;;;;1.50;1.40;;;;;;;20.35;63.39;97597.66;10150873;29;20051;-51
2023/06/24 05:49:05;;;;;;;1.75;1.65;;;;;;;20.35;63.42;97596.88;10138107;29;20139;-51
2023/06/24 05:54:25;;;;;;;1.60;1.50;;;;;;;20.35;63.45;97599.56;10150391;29;20049;-51
2023/06/24 05:59:44;;;;;;;1.85;1.75;;;;;;;20.35;63.29;97599.56;10150243;29;20053;-52
2023/06/24 06:05:04;;;;;;;1.90;1.70;;;;;;;20.35;63.30;97602.28;10150034;29;20112;-51
2023/06/24 06:10:23;;;;;;;1.70;1.60;;;;;;;20.34;63.44;97598.75;10149871;29;20068;-50
2023/06/24 06:15:43;;;;;;;2.05;1.80;;;;;;;20.34;63.33;97603.38;10149620;29;20049;-51
2023/06/24 06:21:02;;;;;;;1.98;1.80;;;;;;;20.34;63.34;97606.09;10137070;29;20060;-50
2023/06/24 06:26:22;;;;;;;1.80;1.70;;;;;;;20.34;63.50;97612.28;10149279;29;20048;-52
2023/06/24 06:31:41;;;;;;;1.65;1.52;;;;;;;20.34;63.39;97615.00;10149225;29;20421;-51
2023/06/24 06:37:01;;;;;;;2.15;1.70;;;;;;;20.34;63.29;97606.88;10149002;29;20048;-51
2023/06/24 06:42:20;;;;;;;1.73;1.60;;;;;;;20.35;63.44;97613.09;10147918;29;20041;-51
2023/06/24 06:47:39;;;;;;;1.80;1.70;;;;;;;20.34;63.54;97612.28;10148553;29;20041;-51
2023/06/24 06:52:59;;;;;;;1.92;1.75;;;;;;;20.35;63.45;97613.91;10136132;29;20056;-50
2023/06/24 06:58:19;;;;;;;1.90;1.80;;;;;;;20.35;63.46;97611.19;10148234;29;20052;-50
2023/06/24 07:03:39;;;;;;;1.90;1.80;;;;;;;20.35;63.39;97613.09;10148252;29;20048;-50
2023/06/24 07:08:58;;;;;;;2.00;1.90;;;;;;;20.36;63.42;97609.28;10135442;29;20052;-51
2023/06/24 07:14:18;;;;;;;1.77;1.67;;;;;;;20.35;63.68;97603.06;10147868;29;20052;-51
2023/06/24 07:19:37;;;;;;;2.10;1.90;;;;;;;20.37;63.42;97607.41;10147785;29;20049;-51
2023/06/24 07:24:57;;;;;;;1.75;1.65;;;;;;;20.37;63.60;97604.69;10147663;29;20379;-51
2023/06/24 07:30:16;;;;;;;1.77;1.67;;;;;;;20.37;63.41;97599.28;10147560;29;20109;-50
2023/06/24 07:35:36;;;;;;;1.83;1.73;;;;;;;20.37;63.55;97604.69;10147408;29;20048;-50
2023/06/24 07:40:55;;;;;;;2.10;1.90;;;;;;;20.37;63.62;97608.19;10147407;29;20048;-50
2023/06/24 07:46:15;;;;;;;3.17;1.88;;;;;;;20.38;63.52;97607.06;10134737;29;20049;-50
2023/06/24 07:51:35;;;;;;;1.92;1.83;;;;;;;20.37;63.56;97610.88;10138617;29;20387;-51
2023/06/24 07:56:54;;;;;;;2.45;2.25;;;;;;;20.37;63.63;97610.88;10154537;29;20048;-50
2023/06/24 08:02:14;;;;;;;2.28;2.17;;;;;;;20.38;63.62;97611.69;10154704;29;20521;-51
2023/06/24 08:07:33;;;;;;;1.92;1.83;;;;;;;20.37;63.78;97610.88;10154415;29;20409;-51
2023/06/24 08:12:52;;;;;;;2.05;1.90;;;;;;;20.39;63.48;97616.78;10154366;29;20513;-51
2023/06/24 08:18:12;;;;;;;2.20;2.00;;;;;;;20.38;63.58;97622.50;10154132;29;20059;-50
2023/06/24 08:23:31;;;;;;;2.08;1.98;;;;;;;20.39;63.67;97616.78;10153900;29;20565;-52
2023/06/24 08:28:51;;;;;;;2.00;1.90;;;;;;;20.40;63.65;97615.66;10153806;29;20048;-51
2023/06/24 08:34:10;;;;;;;2.40;2.20;;;;;;;20.40;63.65;97633.81;10139259;29;20056;-51
2023/06/24 08:39:29;;;;;;;2.10;2.00;;;;;;;20.39;63.84;97629.53;10153325;29;20045;-48
2023/06/24 08:44:49;;;;;;;2.10;2.00;;;;;;;20.40;63.78;97628.41;10153060;29;20068;-50
2023/06/24 08:50:13;;;;;;;2.40;2.20;;;;;;;20.41;63.85;97638.94;10148331;29;20056;-50
2023/06/24 08:55:39;;;;;;;2.22;2.10;;;;;;;20.40;63.75;97626.50;10152562;29;20104;-51
2023/06/24 09:01:00;;;;;;;2.50;2.30;;;;;;;20.40;63.82;97621.09;10152473;29;20048;-50
2023/06/24 09:06:19;;;;;;;2.38;2.17;;;;;;;20.41;63.73;97613.78;10151457;29;20052;-50
2023/06/24 09:11:39;;;;;;;2.17;2.08;;;;;;;20.41;63.78;97625.41;10152211;29;20040;-51
2023/06/24 09:17:03;;;;;;;2.10;2.00;;;;;;;20.41;63.93;97630.81;10152056;29;20048;-51
2023/06/24 09:22:28;;;;;;;2.17;2.08;;;;;;;20.42;63.95;97623.47;10146334;29;20056;-51
2023/06/24 09:27:56;;;;;;;2.60;2.40;;;;;;;20.42;63.87;97623.47;10151528;29;20052;-49
2023/06/24 09:33:21;;;;;;;2.40;2.20;;;;;;;20.42;63.97;97631.59;10151339;29;20056;-52
2023/06/24 09:38:43;;;;;;;2.47;2.28;;;;;;;20.43;64.13;97633.22;10151204;29;20055;-51
2023/06/24 09:44:08;;;;;;;2.45;2.28;;;;;;;20.44;64.23;97629.38;10151107;29;20055;-51
2023/06/24 09:49:29;;;;;;;2.55;2.35;;;;;;;20.44;63.98;97622.06;10126793;29;20061;-51
2023/06/24 09:54:51;;;;;;;2.50;2.30;;;;;;;20.45;64.10;97628.28;10143956;29;20556;-49
2023/06/24 10:00:15;;;;;;;2.40;2.20;;;;;;;20.44;63.97;97618.56;10150451;29;20405;-50
2023/06/24 10:05:35;;;;;;;2.40;2.20;;;;;;;20.45;64.15;97622.88;10135568;29;20045;-49
2023/06/24 10:10:54;;;;;;;2.38;2.17;;;;;;;20.44;64.12;97616.66;10097141;29;20446;-51
2023/06/24 10:16:15;;;;;;;2.35;2.20;;;;;;;20.46;64.14;97619.84;10104370;29;20072;-51
2023/06/24 10:22:04;;;;;;;2.70;2.50;;;;;;;20.45;64.18;97601.22;10135925;29;20175;-51
2023/06/24 10:27:24;;;;;;;2.53;2.33;;;;;;;20.46;64.10;97602.81;10118644;29;20573;-51
2023/06/24 10:32:44;;;;;;;2.45;2.30;;;;;;;20.45;64.13;97603.94;10149162;29;20041;-50
2023/06/24 10:38:10;;;;;;;2.55;2.35;;;;;;;20.47;64.18;97604.41;10112277;29;20048;-50
2023/06/24 10:43:30;;;;;;;2.35;2.15;;;;;;;20.47;64.22;97593.59;10110125;29;20052;-50
2023/06/24 10:48:49;;;;;;;2.83;2.60;;;;;;;20.48;64.22;97603.28;10108677;29;20458;-50
2023/06/24 10:54:08;;;;;;;2.60;2.40;;;;;;;20.47;64.30;97593.59;10136730;29;20045;-52
2023/06/24 10:59:27;;;;;;;2.70;2.50;;;;;;;20.47;64.18;97586.25;10135907;29;20079;-51
2023/06/24 11:04:57;;;;;;;2.60;2.40;;;;;;;20.48;64.28;97587.06;10148121;29;20040;-49
2023/06/24 11:10:17;;;;;;;2.40;2.20;;;;;;;20.48;64.33;97568.09;10147954;29;20040;-51
2023/06/24 11:15:38;;;;;;;2.97;2.78;;;;;;;20.47;64.24;97575.44;10142287;29;20052;-51
2023/06/24 11:20:58;;;;;;;2.67;2.47;;;;;;;20.49;64.57;97572.44;10124272;29;20036;-52
2023/06/24 11:26:17;;;;;;;3.08;2.85;;;;;;;20.49;64.50;97567.81;10108758;29;20108;-51
2023/06/24 11:31:37;;;;;;;2.60;2.40;;;;;;;20.50;64.35;97563.19;10108305;29;20101;-50
2023/06/24 11:36:57;;;;;;;2.47;2.38;;;;;;;20.49;64.35;97545.34;10096348;29;20049;-52
2023/06/24 11:42:17;;;;;;;2.85;2.63;;;;;;;20.51;64.43;97556.66;10108590;29;20052;-50
2023/06/24 11:47:39;;;;;;;2.95;2.75;;;;;;;20.50;64.48;97545.06;10108118;29;20056;-52
2023/06/24 11:52:59;;;;;;;3.13;2.83;;;;;;;20.50;64.43;97545.06;10114464;29;20128;-52
2023/06/24 11:58:22;;;;;;;2.60;2.40;;;;;;;20.51;64.27;97535.03;10147103;29;20048;-51
2023/06/24 12:03:41;;;;;;;2.50;2.30;;;;;;;20.51;64.51;97529.59;10137579;29;20052;-51
2023/06/24 12:09:01;;;;;;;2.40;2.30;;;;;;;20.51;64.33;97527.69;10108015;29;20084;-50
2023/06/24 12:14:20;;;;;;;2.40;2.30;;;;;;;20.52;64.43;97533.88;10108065;29;20056;-52
2023/06/24 12:19:39;;;;;;;2.85;2.65;;;;;;;20.52;64.55;97531.19;10095214;29;20052;-50
2023/06/24 12:24:59;;;;;;;2.90;2.70;;;;;;;20.53;64.46;97521.97;10095408;29;20109;-51
2023/06/24 12:30:18;;;;;;;2.97;2.78;;;;;;;20.53;64.44;97521.97;10095357;29;20057;-51
2023/06/24 12:35:37;;;;;;;2.90;2.70;;;;;;;20.53;64.53;97519.25;10108200;29;20053;-51
2023/06/24 12:40:57;;;;;;;2.75;2.55;;;;;;;20.53;64.46;97511.94;10110101;29;20049;-50
2023/06/24 12:46:17;;;;;;;2.75;2.55;;;;;;;20.53;64.53;97511.13;10114315;29;20041;-51
2023/06/24 12:51:36;;;;;;;2.53;2.33;;;;;;;20.53;64.63;97514.63;10108644;29;20136;-51
2023/06/24 12:56:57;;;;;;;2.95;2.75;;;;;;;20.53;64.54;97506.53;10152760;29;20051;-49
2023/06/24 13:02:16;;;;;;;3.08;2.88;;;;;;;20.55;64.43;97508.91;10152468;29;20390;-51
2023/06/24 13:07:35;;;;;;;2.75;2.55;;;;;;;20.55;64.34;97507.00;10152236;29;20072;-50
2023/06/24 13:12:56;;;;;;;3.10;2.90;;;;;;;20.56;64.45;97505.09;10152164;29;20051;-51
2023/06/24 13:18:15;;;;;;;3.28;2.88;;;;;;;20.56;64.35;97491.56;10152005;29;20049;-51
2023/06/24 13:23:37;;;;;;;2.95;2.75;;;;;;;20.57;64.46;97495.06;10151832;29;20441;-51
2023/06/24 13:28:56;;;;;;;3.00;2.80;;;;;;;20.57;64.58;97501.28;10139142;29;20060;-49
2023/06/24 13:34:16;;;;;;;2.78;2.58;;;;;;;20.57;64.47;97501.28;10151350;29;20045;-50
2023/06/24 13:39:36;;;;;;;2.88;2.67;;;;;;;20.57;64.47;97495.88;10151176;29;20040;-51
2023/06/24 13:44:55;;;;;;;3.05;2.80;;;;;;;20.57;64.60;97490.44;10150823;29;20045;-50
2023/06/24 13:50:14;;;;;;;3.03;2.83;;;;;;;20.58;64.62;97483.94;10145475;29;20056;-50
2023/06/24 13:55:36;;;;;;;3.10;2.90;;;;;;;20.58;64.63;97492.06;10150329;29;20056;-50
2023/06/24 14:00:55;;;;;;;3.05;2.85;;;;;;;20.59;64.69;97496.38;10150447;29;20053;-51
2023/06/24 14:06:17;;;;;;;3.20;2.90;;;;;;;20.60;64.58;97494.47;10150032;29;20085;-52
2023/06/24 14:11:37;;;;;;;2.85;2.65;;;;;;;20.60;64.90;97484.44;10149971;29;20402;-50
2023/06/24 14:16:56;;;;;;;3.13;2.92;;;;;;;20.60;64.84;97484.44;10149780;29;20049;-51
2023/06/24 14:22:17;;;;;;;3.22;3.03;;;;;;;20.61;64.93;97474.41;10149571;29;20044;-50
2023/06/24 14:27:36;;;;;;;3.13;2.85;;;;;;;20.61;65.03;97475.22;10149409;29;20105;-51
2023/06/24 14:32:56;;;;;;;3.00;2.80;;;;;;;20.62;64.96;97457.88;10149168;29;20069;-52
2023/06/24 14:38:15;;;;;;;3.20;3.00;;;;;;;20.63;65.01;97467.56;10136606;29;20079;-51
2023/06/24 14:43:34;;;;;;;2.70;2.50;;;;;;;20.64;65.22;97469.19;10148824;29;20064;-49
2023/06/24 14:48:53;;;;;;;3.47;3.17;;;;;;;20.66;65.27;97452.59;10147286;29;20501;-51
2023/06/24 14:54:13;;;;;;;2.50;2.40;;;;;;;20.65;65.20;97459.94;10148433;29;20048;-50
2023/06/24 14:59:32;;;;;;;3.13;2.83;;;;;;;20.66;65.15;97456.13;10135780;29;20064;-50
2023/06/24 15:04:52;;;;;;;2.75;2.55;;;;;;;20.67;65.25;97446.88;10147505;29;20044;-51
2023/06/24 15:10:11;;;;;;;2.75;2.55;;;;;;;20.68;65.22;97456.59;10148303;29;20040;-48
2023/06/24 15:15:30;;;;;;;2.83;2.63;;;;;;;20.70;65.12;97456.28;10148038;29;20052;-51
2023/06/24 15:20:50;;;;;;;2.70;2.50;;;;;;;20.71;65.09;97449.75;10148083;29;20059;-51
2023/06/24 15:26:09;;;;;;;2.72;2.53;;;;;;;20.71;65.39;97442.41;10147817;29;20101;-49
2023/06/24 15:31:28;;;;;;;2.83;2.63;;;;;;;20.72;65.21;97444.03;10135297;29;20083;-50
2023/06/24 15:36:48;;;;;;;2.80;2.60;;;;;;;20.73;65.22;97451.00;10147543;29;20446;-51
2023/06/24 15:42:07;;;;;;;2.85;2.65;;;;;;;20.73;65.25;97447.53;10147415;29;20051;-51
2023/06/24 15:47:27;;;;;;;3.50;3.20;;;;;;;20.73;65.17;97448.31;10147241;29;20045;-50
2023/06/24 15:52:47;;;;;;;2.78;2.58;;;;;;;20.74;65.00;97446.41;10134792;29;20100;-49
2023/06/24 15:58:07;;;;;;;3.00;2.80;;;;;;;20.73;65.18;97442.09;10147235;29;20079;-51
2023/06/24 16:03:26;;;;;;;3.40;2.90;;;;;;;20.73;65.22;97442.91;10147163;29;20508;-49
2023/06/24 16:08:45;;;;;;;2.80;2.60;;;;;;;20.74;65.15;97444.50;10147174;29;20052;-50
2023/06/24 16:14:05;;;;;;;3.03;2.83;;;;;;;20.74;65.27;97441.00;10140835;29;20041;-50
2023/06/24 16:19:24;;;;;;;2.83;2.63;;;;;;;20.74;65.17;97452.63;10154232;29;20049;-51
2023/06/24 16:24:44;;;;;;;2.92;2.72;;;;;;;20.76;65.29;97446.91;10141659;29;20056;-51
2023/06/24 16:30:04;;;;;;;2.58;2.38;;;;;;;20.76;65.18;97443.38;10153929;29;20045;-50
2023/06/24 16:35:24;;;;;;;3.08;2.78;;;;;;;20.77;65.11;97439.56;10148321;29;20048;-50
2023/06/24 16:40:43;;;;;;;3.20;2.90;;;;;;;20.78;65.06;97443.84;10141026;29;20056;-50
2023/06/24 16:46:03;;;;;;;3.67;3.38;;;;;;;20.77;65.04;97444.97;10140750;29;20056;-51
2023/06/24 16:51:23;;;;;;;3.70;3.40;;;;;;;20.75;64.94;97442.59;10145012;29;20085;-51
2023/06/24 16:56:43;;;;;;;3.80;3.40;;;;;;;20.76;64.92;97440.66;10152888;29;20408;-51
2023/06/24 17:02:02;;;;;;;3.80;3.50;;;;;;;20.75;64.73;97442.59;10152652;29;20060;-51
2023/06/24 17:07:22;;;;;;;4.20;3.42;;;;;;;20.74;64.70;97441.78;10140051;29;20056;-51
2023/06/24 17:12:42;;;;;;;3.28;3.00;;;;;;;20.76;64.55;97437.97;10152276;29;20057;-51
2023/06/24 17:18:01;;;;;;;3.97;3.38;;;;;;;20.77;64.51;97442.28;10152115;29;20049;-51
2023/06/24 17:23:21;;;;;;;3.47;3.17;;;;;;;20.78;64.69;97444.69;10151971;29;20504;-52
2023/06/24 17:28:42;;;;;;;3.70;3.40;;;;;;;20.80;64.64;97438.94;10150853;29;20386;-51
2023/06/24 17:34:01;;;;;;;3.50;3.20;;;;;;;20.79;64.59;97431.91;10151477;29;20040;-51
2023/06/24 17:39:21;;;;;;;3.40;3.10;;;;;;;20.80;64.72;97433.53;10151265;29;20052;-51
2023/06/24 17:44:40;;;;;;;3.55;3.25;;;;;;;20.81;64.76;97435.13;10151063;29;20104;-50
2023/06/24 17:50:00;;;;;;;3.88;3.58;;;;;;;20.79;64.81;97429.22;10146612;29;20465;-51
2023/06/24 17:55:19;;;;;;;3.80;3.50;;;;;;;20.79;64.68;97432.72;10150374;29;20052;-51
2023/06/24 18:00:42;;;;;;;3.78;3.47;;;;;;;20.78;64.66;97427.59;10150349;29;20044;-51
2023/06/24 18:06:02;;;;;;;3.70;3.30;;;;;;;20.80;64.53;97431.63;10150203;29;20051;-51
2023/06/24 18:11:22;;;;;;;3.75;3.45;;;;;;;20.78;64.56;97431.13;10150161;29;20052;-51
2023/06/24 18:16:48;;;;;;;3.70;3.40;;;;;;;20.80;64.59;97436.25;10149887;29;20044;-51
2023/06/24 18:22:08;;;;;;;4.00;3.60;;;;;;;20.80;64.64;97436.25;10136872;29;20055;-49
2023/06/24 18:27:27;;;;;;;3.70;3.40;;;;;;;20.80;64.38;97444.38;10149381;29;20489;-51
2023/06/24 18:32:46;;;;;;;3.67;3.38;;;;;;;20.80;64.58;97444.38;10149298;29;20108;-51
2023/06/24 18:38:06;;;;;;;4.10;3.70;;;;;;;20.78;64.56;97431.13;10149158;29;20073;-51
2023/06/24 18:43:25;;;;;;;3.58;3.33;;;;;;;20.79;64.43;97445.47;10136372;29;20056;-50
2023/06/24 18:48:45;;;;;;;4.57;3.95;;;;;;;20.80;64.36;97438.94;10147637;29;20540;-50
2023/06/24 18:54:04;;;;;;;4.60;4.07;;;;;;;20.80;64.41;97449.78;10148935;29;20052;-52
2023/06/24 18:59:24;;;;;;;4.30;3.90;;;;;;;20.80;64.24;97447.06;10143016;29;20100;-51
2023/06/24 19:04:44;;;;;;;4.32;3.80;;;;;;;20.78;64.48;97447.38;10148147;29;20409;-51
2023/06/24 19:10:04;;;;;;;4.22;3.67;;;;;;;20.79;64.26;97450.88;10133991;29;20049;-50
2023/06/24 19:15:24;;;;;;;4.18;3.88;;;;;;;20.78;64.16;97455.50;10134832;29;20549;-52
2023/06/24 19:20:44;;;;;;;4.00;3.65;;;;;;;20.78;64.26;97458.22;10135407;29;20060;-51
2023/06/24 19:26:04;;;;;;;3.97;3.67;;;;;;;20.77;64.17;97459.31;10147674;29;20060;-51
2023/06/24 19:31:23;;;;;;;4.10;3.70;;;;;;;20.79;64.16;97469.84;10147553;29;20049;-51
2023/06/24 19:36:43;;;;;;;4.47;4.07;;;;;;;20.78;64.06;97465.53;10147561;29;20063;-51
2023/06/24 19:42:03;;;;;;;4.38;3.97;;;;;;;20.78;64.00;97460.09;10148112;29;20130;-52
2023/06/24 19:47:22;;;;;;;3.75;3.45;;;;;;;20.77;63.96;97469.34;10147173;29;20055;-51
2023/06/24 19:52:43;;;;;;;4.10;3.70;;;;;;;20.76;64.08;97459.63;10143236;29;20052;-51
2023/06/24 19:58:04;;;;;;;4.35;3.95;;;;;;;20.77;64.11;97472.06;10142558;29;20057;-51
2023/06/24 20:03:23;;;;;;;4.47;4.07;;;;;;;20.77;64.03;97478.25;10154648;29;20045;-51
2023/06/24 20:08:42;;;;;;;4.50;3.90;;;;;;;20.77;64.07;97477.47;10154417;29;20044;-51
2023/06/24 20:14:02;;;;;;;4.28;3.70;;;;;;;20.77;63.92;97477.47;10142127;29;20056;-51
2023/06/24 20:19:21;;;;;;;4.30;3.90;;;;;;;20.75;64.00;97472.38;10154268;29;20057;-51
2023/06/24 20:24:41;;;;;;;4.57;4.13;;;;;;;20.77;64.02;97472.06;10141082;29;20401;-51
2023/06/24 20:30:01;;;;;;;4.22;3.85;;;;;;;20.78;63.88;97473.63;10141206;29;20053;-51
2023/06/24 20:35:20;;;;;;;4.30;3.90;;;;;;;20.76;63.96;97473.16;10153824;29;20107;-51
2023/06/24 20:40:40;;;;;;;3.78;3.47;;;;;;;20.76;63.87;97470.44;10153601;29;20405;-50
2023/06/24 20:45:59;;;;;;;4.00;3.58;;;;;;;20.74;63.92;97473.50;10153222;29;20051;-50
2023/06/24 20:51:19;;;;;;;3.95;3.65;;;;;;;20.75;63.88;97466.94;10145279;29;20071;-51
2023/06/24 20:56:38;;;;;;;4.60;4.20;;;;;;;20.74;63.93;97474.28;10152977;29;20063;-52
2023/06/24 21:01:58;;;;;;;3.92;3.53;;;;;;;20.76;63.64;97478.56;10151600;29;20048;-51
2023/06/24 21:07:17;;;;;;;3.72;3.42;;;;;;;20.74;63.89;97474.28;10152423;29;20044;-52
2023/06/24 21:12:37;;;;;;;4.13;3.75;;;;;;;20.74;63.67;97473.50;10152285;29;20055;-51
2023/06/24 21:17:57;;;;;;;4.50;4.10;;;;;;;20.74;63.77;97468.88;10152196;29;20048;-51
2023/06/24 21:23:16;;;;;;;4.10;3.72;;;;;;;20.73;63.64;97456.44;10151889;29;20409;-52
2023/06/24 21:28:36;;;;;;;4.25;3.85;;;;;;;20.74;63.58;97468.09;10151668;29;20070;-52
2023/06/24 21:33:57;;;;;;;4.63;4.22;;;;;;;20.74;63.59;97468.09;10151530;29;20059;-52
2023/06/24 21:39:16;;;;;;;4.10;3.80;;;;;;;20.73;63.52;97463.75;10151427;29;20052;-50
2023/06/24 21:44:36;;;;;;;4.35;3.95;;;;;;;20.73;63.63;97461.06;10138742;29;20056;-51
2023/06/24 21:49:55;;;;;;;3.63;3.33;;;;;;;20.72;63.71;97468.41;10146842;29;20056;-51
2023/06/24 21:55:15;;;;;;;3.75;3.30;;;;;;;20.72;63.64;97465.69;10150696;29;20048;-50
2023/06/24 22:00:35;;;;;;;3.90;3.50;;;;;;;20.72;63.48;97460.28;10138210;29;20116;-51
2023/06/24 22:05:54;;;;;;;4.10;3.80;;;;;;;20.71;63.67;97461.38;10150296;29;20045;-49
2023/06/24 22:11:14;;;;;;;4.28;3.88;;;;;;;20.72;63.57;97465.69;10149809;29;20512;-51
2023/06/24 22:16:34;;;;;;;4.18;3.88;;;;;;;20.72;63.39;97476.50;10149885;29;20049;-51
2023/06/24 22:21:53;;;;;;;5.32;3.90;;;;;;;20.72;63.35;97473.00;10137411;29;20128;-52
2023/06/24 22:27:13;;;;;;;4.50;4.10;;;;;;;20.71;63.38;97484.94;10149478;29;20592;-50
2023/06/24 22:32:34;;;;;;;4.05;3.75;;;;;;;20.71;63.39;97480.31;10149282;29;20044;-50
2023/06/24 22:37:53;;;;;;;4.15;3.83;;;;;;;20.70;63.18;97473.31;10136775;29;20049;-51
2023/06/24 22:43:13;;;;;;;4.38;3.97;;;;;;;20.70;63.36;97473.31;10148992;29;20052;-51
2023/06/24 22:48:32;;;;;;;5.05;4.00;;;;;;;20.71;63.15;97482.25;10148189;29;20120;-51
2023/06/24 22:53:52;;;;;;;4.53;4.13;;;;;;;20.70;63.10;97478.75;10148370;29;20056;-51
2023/06/24 22:59:11;;;;;;;4.93;4.07;;;;;;;20.70;63.17;97481.44;10148580;29;20067;-49
2023/06/24 23:04:31;;;;;;;3.88;3.58;;;;;;;20.71;63.24;97479.53;10148362;29;20048;-51
2023/06/24 23:09:54;;;;;;;4.82;4.43;;;;;;;20.70;63.03;97477.94;10123781;29;20041;-52
2023/06/24 23:15:14;;;;;;;4.32;3.92;;;;;;;20.69;62.93;97479.03;10122444;29;20048;-51
2023/06/24 23:20:34;;;;;;;4.30;3.90;;;;;;;20.69;63.06;97485.25;10146880;29;20044;-51
2023/06/24 23:25:53;;;;;;;4.35;3.95;;;;;;;20.69;62.79;97482.53;10147197;29;20048;-51
2023/06/24 23:31:14;;;;;;;4.15;3.85;;;;;;;20.69;62.99;97477.13;10121943;29;20048;-51
2023/06/24 23:36:34;;;;;;;4.00;3.70;;;;;;;20.69;62.94;97466.31;10108735;29;20056;-51
2023/06/24 23:41:54;;;;;;;4.18;3.85;;;;;;;20.69;62.80;97470.94;10108750;29;20420;-51
2023/06/24 23:47:14;;;;;;;4.13;3.78;;;;;;;20.68;62.83;97467.44;10102048;29;20041;-52
2023/06/24 23:52:33;;;;;;;4.10;3.75;;;;;;;20.68;62.75;97463.91;10112400;29;20059;-51
2023/06/24 23:57:52;;;;;;;4.38;4.00;;;;;;;20.68;62.72;97459.31;10125986;29;20053;-51
